createdAt,value
2022-11-13T00:01:31.799Z,10.05
2022-11-13T00:03:58.875Z,10.63
2022-11-13T00:06:25.289Z,10.25
2022-11-13T00:08:55.373Z,9.85
2022-11-13T00:11:21.832Z,12.25
2022-11-13T00:13:48.696Z,12.15
2022-11-13T00:16:16.622Z,13.02
2022-11-13T00:18:43.177Z,13.40
2022-11-13T00:21:27.258Z,13.77
2022-11-13T00:23:53.833Z,12.95
2022-11-13T00:26:22.170Z,13.40
2022-11-13T00:28:52.686Z,12.52
2022-11-13T00:31:19.173Z,14.55
2022-11-13T00:34:09.274Z,13.45
2022-11-13T00:36:32.055Z,13.02
2022-11-13T00:38:58.904Z,12.60
2022-11-13T00:41:25.444Z,13.20
2022-11-13T00:43:52.310Z,13.25
2022-11-13T00:46:18.860Z,12.60
2022-11-13T00:48:45.299Z,13.48
2022-11-13T00:51:13.054Z,13.80
2022-11-13T00:53:39.487Z,13.80
2022-11-13T00:56:06.001Z,12.55
2022-11-13T00:58:32.557Z,12.65
2022-11-13T01:01:28.639Z,13.55
2022-11-13T01:03:55.135Z,14.43
2022-11-13T01:06:31.894Z,14.60
2022-11-13T01:08:59.920Z,14.32
2022-11-13T01:11:27.779Z,11.57
2022-11-13T01:13:54.349Z,13.73
2022-11-13T01:16:22.109Z,14.93
2022-11-13T01:18:48.726Z,12.75
2022-11-13T01:21:18.731Z,12.70
2022-11-13T01:23:45.234Z,13.15
2022-11-13T01:26:19.483Z,13.23
2022-11-13T01:28:46.045Z,13.95
2022-11-13T01:31:13.833Z,12.48
2022-11-13T01:33:40.251Z,12.07
2022-11-13T01:36:08.382Z,12.50
2022-11-13T01:38:36.892Z,10.38
2022-11-13T01:41:04.491Z,11.32
2022-11-13T01:43:32.676Z,11.00
2022-11-13T01:45:59.116Z,10.50
2022-11-13T01:48:37.049Z,11.13
2022-11-13T01:51:07.518Z,10.48
2022-11-13T01:53:33.981Z,10.80
2022-11-13T01:56:00.443Z,12.18
2022-11-13T01:58:27.754Z,12.18
2022-11-13T02:00:54.995Z,12.13
2022-11-13T02:03:21.382Z,11.63
2022-11-13T02:05:47.970Z,11.25
2022-11-13T02:08:14.434Z,11.35
2022-11-13T02:10:40.867Z,12.70
2022-11-13T02:13:07.559Z,13.25
2022-11-13T02:15:34.838Z,12.50
2022-11-13T02:18:01.556Z,10.98
2022-11-13T02:20:40.680Z,12.40
2022-11-13T02:23:18.957Z,13.60
2022-11-13T02:25:47.767Z,12.43
2022-11-13T02:28:14.285Z,12.48
2022-11-13T02:30:40.685Z,12.45
2022-11-13T02:33:25.293Z,11.23
2022-11-13T02:35:52.013Z,10.88
2022-11-13T02:38:18.549Z,11.73
2022-11-13T02:40:45.022Z,12.10
2022-11-13T02:43:11.448Z,10.93
2022-11-13T02:45:40.621Z,11.73
2022-11-13T02:48:07.376Z,11.90
2022-11-13T02:50:34.006Z,10.65
2022-11-13T02:53:00.518Z,11.50
2022-11-13T02:55:27.022Z,11.10
2022-11-13T02:57:53.455Z,10.43
2022-11-13T03:00:19.971Z,10.05
2022-11-13T03:02:46.375Z,10.10
2022-11-13T03:05:13.884Z,11.05
2022-11-13T03:07:41.209Z,10.98
2022-11-13T03:10:08.195Z,12.65
2022-11-13T03:12:34.654Z,9.95
2022-11-13T03:15:01.268Z,10.90
2022-11-13T03:17:27.688Z,9.45
2022-11-13T03:19:54.129Z,10.43
2022-11-13T03:22:20.569Z,10.82
2022-11-13T03:24:46.955Z,10.55
2022-11-13T03:27:13.463Z,10.90
2022-11-13T03:29:39.903Z,10.23
2022-11-13T03:32:06.351Z,10.15
2022-11-13T03:34:32.957Z,10.75
2022-11-13T03:36:59.418Z,9.93
2022-11-13T03:39:25.860Z,10.48
2022-11-13T03:41:52.284Z,10.10
2022-11-13T03:44:18.685Z,10.55
2022-11-13T03:46:45.118Z,9.57
2022-11-13T03:49:11.543Z,9.40
2022-11-13T03:51:38.022Z,10.75
2022-11-13T03:54:04.461Z,11.32
2022-11-13T03:56:30.890Z,11.07
2022-11-13T03:58:57.336Z,10.18
2022-11-13T04:01:23.922Z,11.65
2022-11-13T04:03:50.392Z,10.60
2022-11-13T04:06:17.529Z,11.02
2022-11-13T04:08:43.946Z,12.10
2022-11-13T04:11:11.494Z,10.30
2022-11-13T04:13:38.007Z,11.05
2022-11-13T04:16:04.836Z,10.57
2022-11-13T04:18:31.644Z,10.65
2022-11-13T04:21:01.494Z,11.77
2022-11-13T04:23:27.997Z,12.52
2022-11-13T04:25:54.416Z,12.35
2022-11-13T04:28:21.216Z,11.75
2022-11-13T04:30:47.672Z,11.85
2022-11-13T04:33:14.098Z,11.15
2022-11-13T04:35:42.499Z,12.93
2022-11-13T04:38:08.895Z,11.48
2022-11-13T04:40:35.315Z,13.10
2022-11-13T04:43:02.292Z,12.80
2022-11-13T04:45:28.791Z,12.00
2022-11-13T04:47:55.270Z,12.38
2022-11-13T04:50:21.878Z,13.43
2022-11-13T04:52:48.323Z,12.48
2022-11-13T04:55:15.078Z,13.27
2022-11-13T04:57:41.640Z,11.98
2022-11-13T05:00:09.081Z,11.65
2022-11-13T05:02:35.876Z,13.57
2022-11-13T05:05:05.184Z,12.85
2022-11-13T05:07:31.971Z,12.00
2022-11-13T05:09:58.418Z,12.13
2022-11-13T05:12:24.799Z,12.57
2022-11-13T05:14:51.222Z,13.90
2022-11-13T05:17:17.744Z,13.88
2022-11-13T05:19:44.211Z,13.65
2022-11-13T05:22:10.669Z,13.55
2022-11-13T05:24:37.074Z,13.57
2022-11-13T05:27:03.502Z,13.90
2022-11-13T05:29:29.933Z,16.23
2022-11-13T05:31:56.342Z,15.27
2022-11-13T05:34:22.879Z,17.70
2022-11-13T05:36:49.300Z,16.30
2022-11-13T05:39:15.693Z,16.00
2022-11-13T05:41:42.121Z,15.18
2022-11-13T05:44:08.559Z,15.13
2022-11-13T05:46:34.999Z,15.15
2022-11-13T05:49:02.043Z,16.58
2022-11-13T05:51:30.054Z,16.35
2022-11-13T05:53:56.834Z,16.10
2022-11-13T05:56:25.174Z,15.35
2022-11-13T05:58:52.175Z,15.45
2022-11-13T06:01:19.817Z,15.77
2022-11-13T06:03:46.603Z,16.27
2022-11-13T06:06:14.587Z,14.93
2022-11-13T06:08:41.414Z,15.60
2022-11-13T06:11:09.679Z,15.00
2022-11-13T06:13:36.599Z,15.48
2022-11-13T06:16:05.855Z,15.25
2022-11-13T06:18:32.767Z,17.27
2022-11-13T06:21:07.519Z,15.70
2022-11-13T06:23:34.882Z,15.65
2022-11-13T06:26:05.373Z,14.38
2022-11-13T06:28:32.461Z,16.58
2022-11-13T06:31:02.821Z,18.02
2022-11-13T06:33:29.222Z,16.60
2022-11-13T06:35:55.697Z,16.67
2022-11-13T06:38:22.119Z,18.27
2022-11-13T06:40:48.561Z,15.93
2022-11-13T06:43:14.970Z,16.45
2022-11-13T06:45:41.352Z,16.90
2022-11-13T06:48:07.855Z,15.50
2022-11-13T06:50:34.333Z,16.30
2022-11-13T06:53:00.812Z,13.90
2022-11-13T06:55:27.245Z,15.50
2022-11-13T06:57:54.219Z,16.23
2022-11-13T07:00:20.682Z,15.65
2022-11-13T07:02:49.115Z,16.45
2022-11-13T07:05:15.707Z,15.27
2022-11-13T07:07:42.191Z,16.23
2022-11-13T07:10:08.645Z,16.70
2022-11-13T07:12:35.310Z,16.63
2022-11-13T07:15:01.719Z,19.15
2022-11-13T07:17:28.736Z,17.92
2022-11-13T07:19:55.498Z,18.00
2022-11-13T07:22:21.941Z,16.90
2022-11-13T07:24:48.386Z,16.52
2022-11-13T07:27:14.952Z,15.23
2022-11-13T07:29:42.178Z,15.65
2022-11-13T18:21:40.753Z,29.45
2022-11-13T18:24:13.775Z,33.28
2022-11-13T18:26:40.699Z,30.85
2022-11-13T18:29:07.467Z,30.05
2022-11-13T18:31:33.940Z,31.02
2022-11-13T18:34:01.887Z,29.90
2022-11-13T18:36:28.695Z,29.50
2022-11-13T18:38:55.647Z,29.85
2022-11-13T18:41:22.750Z,29.08
2022-11-13T18:43:50.024Z,28.83
2022-11-13T18:46:17.551Z,28.95
2022-11-13T18:48:44.555Z,29.08
2022-11-13T18:51:15.863Z,31.05
2022-11-13T18:53:44.305Z,30.58
2022-11-13T18:56:12.375Z,32.03
2022-11-13T18:58:39.666Z,33.05
2022-11-13T19:01:18.918Z,35.50
2022-11-13T19:06:34.566Z,33.25
2022-11-13T19:09:02.362Z,33.95
2022-11-13T19:11:30.497Z,33.85
2022-11-13T19:13:57.162Z,31.50
2022-11-13T19:16:28.398Z,34.08
2022-11-13T19:18:56.578Z,33.40
2022-11-13T19:21:24.306Z,32.83
2022-11-13T19:23:50.760Z,33.95
2022-11-13T19:26:17.446Z,35.42
2022-11-13T19:28:46.476Z,33.63
2022-11-13T19:31:13.841Z,33.17
2022-11-13T19:33:40.510Z,31.48
2022-11-13T19:36:11.114Z,34.67
2022-11-13T19:38:38.145Z,33.28
2022-11-13T19:41:05.212Z,32.90
2022-11-13T19:43:32.283Z,31.48
2022-11-13T19:46:02.433Z,37.30
2022-11-13T19:48:29.752Z,33.92
2022-11-13T19:51:02.224Z,33.80
2022-11-13T19:53:29.576Z,33.65
2022-11-13T19:55:56.000Z,35.28
2022-11-13T19:58:22.430Z,35.17
2022-11-13T20:00:49.142Z,41.85
2022-11-13T20:03:15.964Z,38.17
2022-11-13T20:05:43.192Z,37.92
2022-11-13T20:08:11.533Z,38.33
2022-11-13T20:10:38.545Z,37.05
2022-11-13T20:13:05.555Z,36.08
2022-11-13T20:15:32.374Z,37.00
2022-11-13T20:17:58.817Z,37.55
2022-11-13T20:20:25.263Z,38.00
2022-11-13T20:22:51.712Z,38.83
2022-11-13T20:25:18.116Z,37.78
2022-11-13T20:27:47.497Z,36.65
2022-11-13T20:30:14.293Z,31.00
2022-11-13T20:32:40.922Z,33.85
2022-11-13T20:35:08.509Z,32.53
2022-11-13T20:37:34.939Z,36.75
2022-11-13T20:40:01.353Z,31.85
2022-11-13T20:42:28.032Z,35.72
2022-11-13T20:44:59.898Z,33.55
2022-11-13T20:47:27.437Z,34.00
2022-11-13T20:49:53.859Z,32.65
2022-11-13T20:52:25.968Z,33.13
2022-11-13T20:54:58.841Z,33.75
2022-11-13T20:57:27.850Z,31.23
2022-11-13T20:59:58.430Z,30.85
2022-11-13T21:02:25.106Z,29.80
2022-11-13T21:04:51.522Z,30.13
2022-11-13T21:07:18.115Z,32.03
2022-11-13T21:09:48.794Z,31.10
2022-11-13T21:12:16.283Z,30.15
2022-11-13T21:14:44.231Z,30.35
2022-11-13T21:17:11.045Z,32.33
2022-11-13T21:19:37.447Z,33.45
2022-11-13T21:22:04.256Z,31.35
2022-11-13T21:24:31.536Z,31.77
2022-11-13T21:26:58.340Z,30.05
2022-11-13T21:29:25.084Z,30.48
2022-11-13T21:31:51.905Z,31.77
2022-11-13T21:34:18.632Z,31.30
2022-11-13T21:36:45.497Z,31.77
2022-11-13T21:39:12.306Z,31.58
2022-11-13T21:41:39.139Z,31.15
2022-11-13T21:44:06.645Z,30.55
2022-11-13T21:46:35.092Z,28.50
2022-11-13T21:49:03.268Z,28.48
2022-11-13T21:51:30.683Z,29.77
2022-11-13T21:53:57.620Z,27.65
2022-11-13T21:56:25.038Z,30.73
2022-11-13T21:58:52.011Z,28.00
2022-11-13T22:01:19.096Z,27.50
2022-11-13T22:03:45.922Z,26.67
2022-11-13T22:06:12.722Z,25.85
2022-11-13T22:08:39.661Z,25.58
2022-11-13T22:11:06.659Z,24.75
2022-11-13T22:13:33.468Z,24.67
2022-11-13T22:16:02.164Z,23.65
2022-11-13T22:18:28.928Z,24.30
2022-11-13T22:20:59.679Z,25.52
2022-11-13T22:23:26.086Z,26.17
2022-11-13T22:25:57.922Z,24.75
2022-11-13T22:28:24.627Z,27.58
2022-11-13T22:30:51.031Z,28.00
2022-11-13T22:33:17.422Z,27.15
2022-11-13T22:35:43.886Z,28.30
2022-11-13T22:38:11.391Z,28.63
2022-11-13T22:40:38.078Z,31.50
2022-11-13T22:43:04.466Z,33.20
2022-11-13T22:45:32.832Z,31.52
2022-11-13T22:47:59.695Z,32.42
2022-11-13T22:50:26.112Z,30.73
2022-11-13T22:52:52.543Z,28.52
2022-11-13T22:55:18.971Z,28.73
2022-11-13T22:57:45.377Z,27.73
2022-11-13T23:00:12.198Z,26.75
2022-11-13T23:02:41.883Z,27.08
2022-11-13T23:05:12.447Z,27.63
2022-11-13T23:07:39.040Z,27.98
2022-11-13T23:10:05.689Z,29.02
2022-11-13T23:12:32.082Z,26.45
2022-11-13T23:14:58.515Z,27.10
2022-11-13T23:17:24.918Z,27.90
2022-11-13T23:19:52.672Z,27.88
2022-11-13T23:22:20.302Z,27.48
2022-11-13T23:24:46.716Z,27.15
2022-11-13T23:27:14.316Z,27.15
2022-11-13T23:29:44.762Z,28.05
2022-11-13T23:32:16.994Z,25.63
2022-11-13T23:34:59.616Z,27.48
2022-11-13T23:37:28.143Z,27.13
2022-11-13T23:39:55.864Z,27.80
2022-11-13T23:42:45.691Z,26.80
2022-11-13T23:45:11.102Z,26.60
2022-11-13T23:47:38.585Z,25.52
2022-11-13T23:50:05.383Z,26.23
2022-11-13T23:52:32.969Z,25.73
2022-11-13T23:55:00.769Z,25.38
2022-11-13T23:57:28.264Z,24.30
2022-11-13T23:59:55.684Z,24.60
